createdAt,value
2022-08-22T00:00:45.063Z,25.25
2022-08-22T00:02:52.803Z,24.83
2022-08-22T00:02:59.074Z,25.53
2022-08-22T00:03:08.817Z,24.88
2022-08-22T00:03:12.286Z,24.92
2022-08-22T00:04:01.940Z,25.10
2022-08-22T00:07:13.268Z,24.80
2022-08-22T00:10:25.566Z,25.08
2022-08-22T00:13:35.141Z,25.02
2022-08-22T00:16:47.643Z,25.26
2022-08-22T00:20:02.500Z,25.22
2022-08-22T00:23:13.337Z,24.88
2022-08-22T00:26:26.109Z,24.52
2022-08-22T00:29:36.254Z,24.52
2022-08-22T00:32:46.403Z,24.84
2022-08-22T00:36:01.310Z,24.98
2022-08-22T00:39:13.700Z,24.90
2022-08-22T00:42:37.517Z,24.74
2022-08-22T00:46:01.749Z,24.83
2022-08-22T00:49:15.801Z,24.91
2022-08-22T00:52:56.245Z,24.76
2022-08-22T00:56:21.874Z,24.88
2022-08-22T00:59:53.411Z,24.74
2022-08-22T01:03:29.247Z,25.02
2022-08-22T01:06:46.288Z,24.80
2022-08-22T01:10:02.943Z,24.86
2022-08-22T01:13:22.955Z,24.92
2022-08-22T01:16:50.513Z,24.79
2022-08-22T01:20:25.729Z,24.90
2022-08-22T01:24:03.996Z,24.82
2022-08-22T01:27:57.760Z,24.84
2022-08-22T01:31:43.098Z,24.33
2022-08-22T01:35:26.876Z,24.80
2022-08-22T01:38:55.881Z,24.93
2022-08-22T01:42:32.629Z,24.59
2022-08-22T01:46:14.969Z,24.19
2022-08-22T01:49:29.641Z,24.58
2022-08-22T01:52:43.574Z,24.62
2022-08-22T01:55:58.313Z,24.39
2022-08-22T01:59:05.850Z,24.59
2022-08-22T02:02:29.756Z,24.71
2022-08-22T02:05:38.993Z,24.75
2022-08-22T02:09:00.311Z,24.63
2022-08-22T02:12:25.759Z,24.52
2022-08-22T02:15:45.230Z,24.45
2022-08-22T02:19:04.323Z,24.46
2022-08-22T02:22:22.912Z,24.71
2022-08-22T02:25:32.785Z,24.59
2022-08-22T02:28:56.511Z,24.79
2022-08-22T02:32:06.404Z,24.57
2022-08-22T02:35:23.384Z,24.53
2022-08-22T02:38:33.398Z,24.41
2022-08-22T02:41:49.852Z,24.51
2022-08-22T02:45:02.715Z,24.58
2022-08-22T02:48:21.668Z,23.75
2022-08-22T02:51:38.036Z,24.27
2022-08-22T02:54:53.423Z,24.24
2022-08-22T02:58:06.495Z,24.03
2022-08-22T03:01:24.249Z,24.33
2022-08-22T03:04:48.312Z,23.96
2022-08-22T03:08:14.825Z,24.29
2022-08-22T03:11:25.287Z,24.30
2022-08-22T03:14:35.716Z,24.45
2022-08-22T03:17:49.208Z,24.55
2022-08-22T03:20:59.032Z,24.29
2022-08-22T03:24:12.801Z,24.40
2022-08-22T03:27:32.819Z,24.44
2022-08-22T03:30:43.810Z,24.06
2022-08-22T03:34:07.560Z,24.33
2022-08-22T03:37:19.264Z,24.39
2022-08-22T03:40:31.952Z,24.52
2022-08-22T03:44:05.335Z,24.56
2022-08-22T03:47:32.190Z,24.34
2022-08-22T03:51:05.149Z,24.35
2022-08-22T03:54:49.860Z,24.36
2022-08-22T03:58:27.682Z,24.57
2022-08-22T04:01:56.546Z,24.38
2022-08-22T04:05:20.514Z,24.20
2022-08-22T04:08:53.489Z,24.45
2022-08-22T04:12:34.951Z,24.50
2022-08-22T04:15:56.514Z,24.45
2022-08-22T04:19:24.519Z,24.81
2022-08-22T04:22:49.745Z,24.61
2022-08-22T04:25:57.678Z,24.62
2022-08-22T04:29:10.053Z,24.41
2022-08-22T04:32:22.324Z,24.59
2022-08-22T04:35:32.382Z,24.67
2022-08-22T04:38:43.288Z,24.46
2022-08-22T04:41:51.687Z,24.88
2022-08-22T04:44:59.754Z,24.97
2022-08-22T04:48:09.270Z,25.11
2022-08-22T04:51:23.363Z,24.90
2022-08-22T04:54:48.590Z,24.93
2022-08-22T04:57:58.469Z,25.45
2022-08-22T05:01:13.569Z,25.86
2022-08-22T05:04:21.878Z,26.04
2022-08-22T05:07:32.379Z,26.18
2022-08-22T05:10:46.416Z,26.08
2022-08-22T05:13:56.299Z,26.40
2022-08-22T05:17:01.549Z,26.94
2022-08-22T05:20:11.321Z,27.28
2022-08-22T05:23:21.726Z,27.38
2022-08-22T05:26:28.670Z,26.41
2022-08-22T05:29:34.215Z,26.94
2022-08-22T05:32:47.668Z,26.54
2022-08-22T05:35:57.834Z,26.95
2022-08-22T05:39:06.191Z,27.46
2022-08-22T05:42:15.728Z,27.52
2022-08-22T05:45:20.431Z,27.64
2022-08-22T05:48:32.780Z,27.43
2022-08-22T05:51:42.097Z,27.79
2022-08-22T05:54:54.945Z,28.14
2022-08-22T05:58:15.058Z,28.46
2022-08-22T06:01:39.114Z,28.55
2022-08-22T06:04:50.225Z,28.47
2022-08-22T06:07:59.587Z,28.91
2022-08-22T06:11:09.125Z,28.90
2022-08-22T06:14:26.332Z,29.04
2022-08-22T06:17:36.065Z,28.82
2022-08-22T06:20:45.284Z,28.68
2022-08-22T06:23:54.295Z,28.88
2022-08-22T06:27:09.011Z,29.15
2022-08-22T06:30:17.060Z,29.44
2022-08-22T06:33:25.532Z,29.21
2022-08-22T06:36:32.580Z,29.67
2022-08-22T06:39:38.985Z,29.13
2022-08-22T06:42:45.800Z,29.24
2022-08-22T06:45:53.062Z,29.22
2022-08-22T06:48:57.591Z,29.65
2022-08-22T06:52:08.632Z,29.87
2022-08-22T06:55:12.407Z,29.65
2022-08-22T06:58:18.799Z,30.15
2022-08-22T07:01:26.454Z,29.65
2022-08-22T07:04:30.164Z,29.75
2022-08-22T07:07:33.532Z,30.11
2022-08-22T07:10:37.726Z,30.35
2022-08-22T07:13:46.227Z,29.40
2022-08-22T07:17:00.100Z,30.22
2022-08-22T07:20:17.382Z,30.47
2022-08-22T07:23:31.645Z,30.47
2022-08-22T07:26:49.062Z,30.65
2022-08-22T07:30:04.085Z,31.01
2022-08-22T07:33:27.007Z,31.10
2022-08-22T07:36:37.876Z,30.93
2022-08-22T07:39:51.591Z,30.84
2022-08-22T07:43:04.485Z,30.55
2022-08-22T07:46:20.838Z,30.23
2022-08-22T07:49:30.430Z,30.99
2022-08-22T07:52:40.435Z,31.10
2022-08-22T07:55:49.754Z,30.92
2022-08-22T07:58:57.028Z,31.38
2022-08-22T08:02:03.300Z,31.17
2022-08-22T08:05:09.048Z,31.22
2022-08-22T08:08:20.956Z,31.68
2022-08-22T08:11:28.170Z,32.41
2022-08-22T08:14:32.606Z,32.65
2022-08-22T08:17:38.468Z,32.28
2022-08-22T08:20:43.531Z,32.10
2022-08-22T08:23:47.818Z,32.24
2022-08-22T08:27:12.781Z,32.45
2022-08-22T08:30:18.913Z,30.90
2022-08-22T08:33:26.728Z,31.49
2022-08-22T08:36:45.913Z,32.35
2022-08-22T08:39:51.618Z,32.24
2022-08-22T08:43:28.261Z,32.21
2022-08-22T08:46:57.485Z,32.21
2022-08-22T08:50:29.165Z,32.66
2022-08-22T08:54:05.847Z,33.03
2022-08-22T08:57:20.285Z,33.41
2022-08-22T09:00:45.083Z,33.43
2022-08-22T09:04:15.200Z,33.44
2022-08-22T09:07:49.376Z,33.59
2022-08-22T09:11:10.186Z,32.92
2022-08-22T09:14:39.243Z,32.47
2022-08-22T09:18:20.105Z,33.01
2022-08-22T09:22:00.852Z,32.67
2022-08-22T09:25:23.675Z,32.43
2022-08-22T09:28:41.585Z,32.36
2022-08-22T09:31:59.690Z,32.45
2022-08-22T09:35:10.320Z,33.11
2022-08-22T09:38:40.866Z,33.12
2022-08-22T09:42:01.146Z,33.27
2022-08-22T09:45:38.673Z,33.16
2022-08-22T09:48:54.203Z,32.69
2022-08-22T09:52:15.218Z,33.12
2022-08-22T09:55:35.405Z,33.60
2022-08-22T09:58:44.999Z,33.53
2022-08-22T10:02:00.981Z,33.45
2022-08-22T10:05:40.658Z,33.34
2022-08-22T10:08:46.129Z,33.11
2022-08-22T10:11:55.588Z,32.20
2022-08-22T10:15:10.947Z,31.88
2022-08-22T10:18:29.567Z,32.10
2022-08-22T10:21:43.109Z,31.98
2022-08-22T10:24:58.536Z,31.39
2022-08-22T10:28:16.023Z,31.06
2022-08-22T10:31:29.534Z,30.72
2022-08-22T10:34:42.886Z,30.74
2022-08-22T10:37:55.309Z,30.93
2022-08-22T10:41:09.473Z,30.60
2022-08-22T10:44:20.662Z,30.44
2022-08-22T10:47:34.091Z,30.36
2022-08-22T10:50:43.595Z,30.04
2022-08-22T10:54:20.151Z,30.29
2022-08-22T10:58:01.949Z,30.11
2022-08-22T11:01:37.809Z,30.07
2022-08-22T11:04:53.229Z,30.54
2022-08-22T11:08:15.088Z,30.49
2022-08-22T11:11:32.536Z,30.17
2022-08-22T11:15:03.085Z,30.08
2022-08-22T11:18:30.578Z,29.82
2022-08-22T11:21:50.847Z,29.88
2022-08-22T11:25:35.719Z,29.83
2022-08-22T11:29:13.850Z,30.23
2022-08-22T11:32:25.912Z,30.30
2022-08-22T11:35:38.219Z,30.26
2022-08-22T11:39:01.182Z,30.34
2022-08-22T11:42:11.662Z,30.20
2022-08-22T11:45:22.407Z,30.19
2022-08-22T11:48:35.371Z,29.84
2022-08-22T11:52:00.652Z,30.02
2022-08-22T11:55:24.089Z,29.89
2022-08-22T11:58:41.283Z,30.02
2022-08-22T12:01:52.694Z,30.07
2022-08-22T12:05:00.000Z,29.95
2022-08-22T12:08:12.496Z,29.77
2022-08-22T12:11:23.587Z,29.66
2022-08-22T12:14:34.710Z,29.28
2022-08-22T12:18:09.604Z,29.54
2022-08-22T12:21:28.503Z,29.30
2022-08-22T12:24:47.784Z,29.28
2022-08-22T12:28:00.430Z,29.02
2022-08-22T12:31:14.805Z,28.79
2022-08-22T12:34:28.062Z,29.09
2022-08-22T12:38:26.672Z,29.33
2022-08-22T12:41:28.328Z,29.68
2022-08-22T12:44:52.963Z,29.77
2022-08-22T12:48:10.037Z,29.65
2022-08-22T12:51:33.060Z,29.48
2022-08-22T12:54:50.261Z,29.41
2022-08-22T12:58:03.724Z,29.21
2022-08-22T13:01:09.484Z,28.88
2022-08-22T13:04:32.555Z,28.50
2022-08-22T13:07:40.646Z,28.84
2022-08-22T13:10:48.791Z,28.59
2022-08-22T13:13:57.943Z,28.51
2022-08-22T13:17:15.179Z,28.47
2022-08-22T13:20:32.861Z,28.68
2022-08-22T13:23:43.139Z,28.81
2022-08-22T13:26:49.719Z,28.97
2022-08-22T13:29:58.746Z,28.79
2022-08-22T13:33:09.840Z,28.74
2022-08-22T13:36:18.277Z,28.79
2022-08-22T13:39:28.164Z,28.92
2022-08-22T13:42:34.984Z,28.77
2022-08-22T13:45:54.012Z,28.56
2022-08-22T13:49:01.350Z,28.75
2022-08-22T13:52:29.199Z,28.77
2022-08-22T13:55:43.265Z,28.56
2022-08-22T13:58:51.641Z,28.77
2022-08-22T14:02:00.504Z,28.43
2022-08-22T14:05:09.242Z,28.56
2022-08-22T14:08:23.281Z,28.51
2022-08-22T14:11:37.085Z,28.37
2022-08-22T14:14:42.508Z,28.11
2022-08-22T14:17:49.179Z,28.14
2022-08-22T14:20:53.332Z,28.40
2022-08-22T14:24:00.284Z,28.34
2022-08-22T14:27:09.252Z,28.42
2022-08-22T14:30:17.157Z,28.46
2022-08-22T14:33:25.461Z,28.28
2022-08-22T14:36:49.230Z,28.32
2022-08-22T14:40:00.962Z,28.02
2022-08-22T14:43:10.493Z,27.66
2022-08-22T14:46:19.927Z,27.75
2022-08-22T14:49:31.722Z,27.54
2022-08-22T14:52:40.598Z,27.45
2022-08-22T14:55:44.168Z,27.35
2022-08-22T14:58:52.716Z,27.13
2022-08-22T15:01:59.905Z,26.81
2022-08-22T15:05:18.077Z,26.92
2022-08-22T15:08:30.280Z,26.55
2022-08-22T15:11:34.543Z,26.79
2022-08-22T15:14:52.331Z,26.83
2022-08-22T15:17:57.044Z,26.96
2022-08-22T15:21:06.913Z,27.11
2022-08-22T15:24:15.570Z,27.18
2022-08-22T15:27:22.452Z,27.03
2022-08-22T15:30:44.221Z,26.94
2022-08-22T15:33:49.429Z,26.92
2022-08-22T15:37:10.991Z,26.93
2022-08-22T15:40:33.266Z,26.84
2022-08-22T15:43:46.104Z,26.65
2022-08-22T15:47:01.298Z,26.38
2022-08-22T15:50:09.517Z,26.38
2022-08-22T15:53:24.126Z,26.59
2022-08-22T15:56:29.851Z,26.45
2022-08-22T15:59:48.148Z,26.64
2022-08-22T16:03:04.323Z,26.57
2022-08-22T16:06:11.264Z,26.44
2022-08-22T16:09:34.059Z,26.38
2022-08-22T16:12:41.101Z,26.59
2022-08-22T16:16:10.026Z,26.31
2022-08-22T16:19:25.425Z,26.32
2022-08-22T16:23:07.552Z,26.49
2022-08-22T16:26:17.436Z,26.30
2022-08-22T16:29:41.237Z,26.10
2022-08-22T16:32:57.718Z,26.12
2022-08-22T16:36:40.361Z,26.54
2022-08-22T16:39:48.118Z,26.35
2022-08-22T16:43:10.994Z,26.25
2022-08-22T16:46:34.613Z,26.29
2022-08-22T16:49:54.744Z,26.52
2022-08-22T16:53:02.024Z,26.14
2022-08-22T16:56:28.348Z,26.37
2022-08-22T16:59:40.940Z,26.63
2022-08-22T17:02:58.784Z,26.69
2022-08-22T17:06:25.923Z,26.38
2022-08-22T17:09:46.446Z,26.59
2022-08-22T17:13:06.363Z,26.59
2022-08-22T17:16:25.131Z,26.40
2022-08-22T17:19:49.096Z,26.40
2022-08-22T17:22:58.233Z,26.53
2022-08-22T17:26:20.544Z,26.53
2022-08-22T17:29:39.395Z,26.73
2022-08-22T17:32:59.755Z,26.73
2022-08-22T17:36:26.348Z,26.80
2022-08-22T17:39:54.570Z,26.85
2022-08-22T17:43:27.547Z,26.84
2022-08-22T17:46:51.132Z,26.87
2022-08-22T17:50:01.168Z,26.92
2022-08-22T17:53:10.340Z,26.74
2022-08-22T17:56:21.316Z,26.82
2022-08-22T17:59:29.101Z,26.10
2022-08-22T18:02:39.447Z,26.53
2022-08-22T18:05:49.911Z,26.22
2022-08-22T18:09:13.656Z,26.36
2022-08-22T18:12:22.128Z,26.12
2022-08-22T18:15:31.553Z,25.87
2022-08-22T18:18:40.151Z,26.17
2022-08-22T18:21:49.685Z,26.07
2022-08-22T18:24:58.819Z,26.08
2022-08-22T18:28:06.516Z,25.87
2022-08-22T18:31:16.946Z,25.97
2022-08-22T18:34:31.529Z,25.97
2022-08-22T18:37:50.890Z,25.80
2022-08-22T18:41:09.973Z,25.94
2022-08-22T18:44:19.521Z,25.83
2022-08-22T18:47:25.936Z,25.70
2022-08-22T18:50:34.616Z,25.53
2022-08-22T18:53:42.143Z,25.51
2022-08-22T18:56:51.606Z,25.64
2022-08-22T19:00:08.793Z,25.74
2022-08-22T19:03:39.609Z,25.84
2022-08-22T19:07:04.834Z,25.97
2022-08-22T19:10:34.537Z,26.16
2022-08-22T19:13:54.322Z,26.12
2022-08-22T19:17:34.523Z,25.60
2022-08-22T19:20:57.365Z,25.86
2022-08-22T19:24:02.897Z,25.90
2022-08-22T19:27:31.009Z,26.04
2022-08-22T19:30:45.447Z,26.04
2022-08-22T19:33:50.284Z,26.16
2022-08-22T19:37:34.185Z,26.23
2022-08-22T19:40:55.886Z,26.12
2022-08-22T19:44:02.007Z,26.18
2022-08-22T19:47:24.352Z,26.15
2022-08-22T19:50:33.273Z,26.03
2022-08-22T19:53:47.606Z,26.02
2022-08-22T19:57:07.388Z,25.97
2022-08-22T20:00:18.782Z,26.02
2022-08-22T20:03:33.576Z,26.01
2022-08-22T20:06:44.687Z,25.81
2022-08-22T20:10:01.835Z,25.82
2022-08-22T20:13:11.995Z,25.85
2022-08-22T20:16:19.406Z,25.79
2022-08-22T20:19:22.915Z,25.78
2022-08-22T20:22:30.621Z,25.64
2022-08-22T20:25:44.192Z,25.33
2022-08-22T20:28:52.484Z,25.51
2022-08-22T20:31:58.793Z,25.42
2022-08-22T20:35:05.068Z,25.59
2022-08-22T20:38:11.407Z,25.31
2022-08-22T20:41:22.538Z,25.44
2022-08-22T20:44:33.569Z,25.28
2022-08-22T20:47:41.794Z,25.18
2022-08-22T20:50:46.179Z,25.23
2022-08-22T20:53:53.374Z,25.29
2022-08-22T20:57:00.128Z,25.25
2022-08-22T21:00:11.715Z,25.28
2022-08-22T21:03:25.959Z,25.35
2022-08-22T21:06:34.313Z,25.68
2022-08-22T21:09:55.198Z,25.71
2022-08-22T21:13:10.454Z,25.79
2022-08-22T21:16:18.865Z,25.70
2022-08-22T21:19:27.325Z,25.80
2022-08-22T21:22:34.655Z,25.77
2022-08-22T21:25:51.785Z,25.82
2022-08-22T21:29:00.238Z,25.43
2022-08-22T21:32:18.124Z,25.26
2022-08-22T21:35:29.529Z,25.35
2022-08-22T21:38:32.869Z,25.59
2022-08-22T21:41:41.405Z,25.61
2022-08-22T21:44:57.455Z,25.65
2022-08-22T21:48:02.852Z,25.72
2022-08-22T21:51:30.148Z,25.57
2022-08-22T21:54:42.598Z,25.44
2022-08-22T21:57:46.055Z,25.54
2022-08-22T22:00:52.055Z,25.63
2022-08-22T22:03:57.992Z,25.76
2022-08-22T22:07:01.412Z,25.77
2022-08-22T22:10:05.799Z,25.74
2022-08-22T22:13:09.672Z,25.74
2022-08-22T22:16:13.890Z,25.69
2022-08-22T22:19:18.655Z,25.70
2022-08-22T22:22:22.567Z,25.69
2022-08-22T22:25:39.685Z,25.69
2022-08-22T22:28:48.498Z,25.66
2022-08-22T22:31:52.367Z,25.60
2022-08-22T22:34:57.094Z,25.62
2022-08-22T22:38:00.506Z,25.69
2022-08-22T22:41:04.007Z,25.76
2022-08-22T22:44:07.299Z,25.82
2022-08-22T22:47:10.660Z,25.78
2022-08-22T22:50:15.416Z,25.43
2022-08-22T22:53:21.317Z,25.47
2022-08-22T22:56:31.733Z,25.51
2022-08-22T22:59:35.380Z,25.17
2022-08-22T23:02:38.688Z,24.34
2022-08-22T23:05:43.404Z,24.70
2022-08-22T23:08:47.400Z,24.40
2022-08-22T23:11:51.093Z,24.55
2022-08-22T23:14:54.400Z,24.89
2022-08-22T23:17:58.422Z,25.00
2022-08-22T23:21:13.025Z,24.94
2022-08-22T23:24:16.487Z,24.89
2022-08-22T23:27:19.844Z,24.49
2022-08-22T23:30:23.212Z,24.43
2022-08-22T23:33:26.595Z,24.70
2022-08-22T23:36:31.493Z,24.38
2022-08-22T23:39:36.281Z,24.46
2022-08-22T23:42:39.587Z,24.62
2022-08-22T23:45:42.879Z,24.59
2022-08-22T23:48:46.694Z,24.69
2022-08-22T23:51:52.055Z,24.60
2022-08-22T23:54:55.931Z,24.46
2022-08-22T23:57:59.405Z,24.65
